createdAt,value
2016-12-24T00:00:32.735Z,0
2016-12-24T00:01:41.325Z,0
2016-12-24T00:02:50.222Z,0
2016-12-24T00:03:58.807Z,0
2016-12-24T00:05:07.384Z,0
2016-12-24T00:06:16.371Z,0
2016-12-24T00:07:24.954Z,0
2016-12-24T00:08:33.523Z,0
2016-12-24T00:09:42.097Z,0
2016-12-24T00:10:50.679Z,0
2016-12-24T00:12:00.313Z,0
2016-12-24T00:13:09.524Z,0
2016-12-24T00:14:19.073Z,0
2016-12-24T00:15:27.658Z,0
2016-12-24T00:16:36.557Z,0
2016-12-24T00:17:45.526Z,0
2016-12-24T00:18:54.107Z,0
2016-12-24T00:20:02.698Z,0
2016-12-24T00:21:11.276Z,0
2016-12-24T00:22:19.882Z,0
2016-12-24T00:23:29.141Z,0
2016-12-24T00:24:38.683Z,0
2016-12-24T00:25:47.253Z,0
2016-12-24T00:26:56.135Z,0
2016-12-24T00:28:04.716Z,0
2016-12-24T00:29:13.972Z,0
2016-12-24T00:30:22.552Z,0
2016-12-24T00:31:31.457Z,0
2016-12-24T00:32:40.661Z,0
2016-12-24T00:33:49.236Z,0
2016-12-24T00:34:58.011Z,0
2016-12-24T00:36:07.234Z,0
2016-12-24T00:37:16.489Z,0
2016-12-24T00:38:25.072Z,0
2016-12-24T00:39:33.680Z,0
2016-12-24T00:40:42.465Z,0
2016-12-24T00:41:51.380Z,0
2016-12-24T00:43:00.292Z,0
2016-12-24T00:44:08.867Z,0
2016-12-24T00:45:18.081Z,0
2016-12-24T00:46:27.388Z,0
2016-12-24T00:47:35.958Z,0
2016-12-24T00:48:45.175Z,0
2016-12-24T00:49:54.094Z,0
2016-12-24T00:51:02.674Z,0
2016-12-24T00:52:11.973Z,0
2016-12-24T00:53:20.565Z,0
2016-12-24T00:54:29.142Z,0
2016-12-24T00:55:37.734Z,0
2016-12-24T00:56:46.633Z,0
2016-12-24T00:57:55.995Z,0
2016-12-24T00:59:05.531Z,0
2016-12-24T01:00:14.104Z,0
2016-12-24T01:01:23.318Z,0
2016-12-24T01:02:31.900Z,0
2016-12-24T01:03:40.944Z,0
2016-12-24T01:04:49.856Z,0
2016-12-24T01:05:58.443Z,0
2016-12-24T01:07:07.030Z,0
2016-12-24T01:08:15.610Z,0
2016-12-24T01:09:24.641Z,0
2016-12-24T01:10:33.873Z,0
2016-12-24T01:11:42.793Z,0
2016-12-24T01:12:51.367Z,0
2016-12-24T01:14:00.288Z,0
2016-12-24T01:15:09.208Z,0
2016-12-24T01:16:18.119Z,0
2016-12-24T01:17:27.339Z,0
2016-12-24T01:18:36.596Z,0
2016-12-24T01:19:45.177Z,0
2016-12-24T01:20:54.476Z,0
2016-12-24T01:22:03.062Z,0
2016-12-24T01:23:11.644Z,0
2016-12-24T01:24:20.547Z,0
2016-12-24T01:25:29.130Z,0
2016-12-24T01:26:38.419Z,0
2016-12-24T01:27:47.014Z,0
2016-12-24T01:28:55.608Z,0
2016-12-24T01:30:04.823Z,0
2016-12-24T01:31:13.405Z,0
2016-12-24T01:32:22.330Z,0
2016-12-24T01:33:30.905Z,0
2016-12-24T01:34:39.485Z,0
2016-12-24T01:35:48.072Z,0
2016-12-24T01:36:56.967Z,0
2016-12-24T01:38:05.607Z,0
2016-12-24T01:39:14.815Z,0
2016-12-24T01:40:23.403Z,0
2016-12-24T01:41:31.971Z,0
2016-12-24T01:42:41.201Z,0
2016-12-24T01:43:50.767Z,0
2016-12-24T01:44:59.666Z,0
2016-12-24T01:46:08.577Z,0
2016-12-24T01:47:17.807Z,0
2016-12-24T01:48:26.738Z,0
2016-12-24T01:49:35.997Z,0
2016-12-24T01:50:44.909Z,0
2016-12-24T01:51:53.496Z,0
2016-12-24T01:53:02.073Z,0
2016-12-24T01:54:10.977Z,0
2016-12-24T01:55:19.610Z,0
2016-12-24T01:56:28.522Z,0
2016-12-24T01:57:37.092Z,0
2016-12-24T01:58:45.677Z,0
2016-12-24T01:59:54.603Z,0
2016-12-24T02:01:03.862Z,0
2016-12-24T02:02:12.753Z,0
2016-12-24T02:03:21.351Z,0
2016-12-24T02:04:29.936Z,0
2016-12-24T02:05:38.520Z,0
2016-12-24T02:06:48.084Z,0
2016-12-24T02:07:56.989Z,0
2016-12-24T02:09:05.873Z,0
2016-12-24T02:10:14.453Z,0
2016-12-24T02:11:23.354Z,0
2016-12-24T02:12:33.254Z,0
2016-12-24T02:13:41.846Z,0
2016-12-24T02:14:50.758Z,0
2016-12-24T02:15:59.354Z,0
2016-12-24T02:17:07.941Z,0
2016-12-24T02:18:17.555Z,0
2016-12-24T02:19:26.474Z,0
2016-12-24T02:20:35.383Z,0
2016-12-24T02:21:44.588Z,0
2016-12-24T02:22:53.816Z,0
2016-12-24T02:24:03.069Z,0
2016-12-24T02:25:11.646Z,0
2016-12-24T02:26:20.560Z,0
2016-12-24T02:27:29.140Z,0
2016-12-24T02:28:38.042Z,0
2016-12-24T02:29:47.345Z,0
2016-12-24T02:30:55.936Z,0
2016-12-24T02:32:04.522Z,0
2016-12-24T02:33:13.121Z,0
2016-12-24T02:34:22.025Z,0
2016-12-24T02:35:30.949Z,0
2016-12-24T02:36:40.183Z,0
2016-12-24T02:37:48.770Z,0
2016-12-24T02:38:57.681Z,0
2016-12-24T02:40:06.900Z,0
2016-12-24T02:41:16.788Z,0
2016-12-24T02:42:25.375Z,0
2016-12-24T02:43:34.587Z,0
2016-12-24T02:44:43.829Z,0
2016-12-24T02:45:52.422Z,0
2016-12-24T02:47:01.354Z,0
2016-12-24T02:48:09.963Z,0
2016-12-24T02:49:19.198Z,0
2016-12-24T02:50:27.766Z,0
2016-12-24T02:51:36.332Z,0
2016-12-24T02:52:45.891Z,0
2016-12-24T02:53:54.802Z,0
2016-12-24T02:55:04.018Z,0
2016-12-24T02:56:12.942Z,0
2016-12-24T02:57:21.835Z,0
2016-12-24T02:58:30.754Z,0
2016-12-24T02:59:39.650Z,0
2016-12-24T03:00:48.554Z,0
2016-12-24T03:01:57.133Z,0
2016-12-24T03:03:06.359Z,0
2016-12-24T03:04:15.285Z,0
2016-12-24T03:05:24.170Z,0
2016-12-24T03:06:33.082Z,0
2016-12-24T03:07:41.982Z,0
2016-12-24T03:08:50.890Z,0
2016-12-24T03:09:59.834Z,0
2016-12-24T03:11:08.420Z,0
2016-12-24T03:12:17.960Z,0
2016-12-24T03:13:27.177Z,0
2016-12-24T03:14:35.761Z,0
2016-12-24T03:15:45.008Z,0
2016-12-24T03:16:53.917Z,0
2016-12-24T03:18:03.146Z,0
2016-12-24T03:19:12.387Z,0
2016-12-24T03:20:20.981Z,0
2016-12-24T03:21:30.369Z,0
2016-12-24T03:22:39.596Z,0
2016-12-24T03:23:48.170Z,0
2016-12-24T03:24:57.057Z,0
2016-12-24T03:26:05.634Z,0
2016-12-24T03:27:15.383Z,0
2016-12-24T03:28:23.963Z,0
2016-12-24T03:29:32.881Z,0
2016-12-24T03:30:41.799Z,0
2016-12-24T03:31:50.391Z,0
2016-12-24T03:32:59.313Z,0
2016-12-24T03:34:08.546Z,0
2016-12-24T03:35:17.462Z,0
2016-12-24T03:36:26.044Z,0
2016-12-24T03:37:34.617Z,0
2016-12-24T03:38:43.233Z,0
2016-12-24T03:39:51.811Z,0
2016-12-24T03:41:00.384Z,0
2016-12-24T03:42:09.609Z,0
2016-12-24T03:43:18.843Z,0
2016-12-24T03:44:28.133Z,0
2016-12-24T03:45:37.018Z,0
2016-12-24T03:46:45.610Z,0
2016-12-24T03:47:54.194Z,0
2016-12-24T03:49:02.759Z,0
2016-12-24T03:50:11.706Z,0
2016-12-24T03:51:20.947Z,0
2016-12-24T03:52:29.524Z,0
2016-12-24T03:53:38.116Z,0
2016-12-24T03:54:46.697Z,0
2016-12-24T03:55:56.268Z,0
2016-12-24T03:57:05.170Z,0
2016-12-24T03:58:14.076Z,0
2016-12-24T03:59:22.649Z,0
2016-12-24T04:00:31.241Z,0
2016-12-24T04:01:40.831Z,0
2016-12-24T04:02:50.064Z,0
2016-12-24T04:03:58.651Z,0
2016-12-24T04:05:07.225Z,0
2016-12-24T04:06:16.128Z,0
2016-12-24T04:07:26.027Z,0
2016-12-24T04:08:34.609Z,0
2016-12-24T04:09:43.179Z,0
2016-12-24T04:10:51.758Z,0
2016-12-24T04:12:00.978Z,0
2016-12-24T04:13:10.360Z,0
2016-12-24T04:14:19.275Z,0
2016-12-24T04:15:28.189Z,0
2016-12-24T04:16:36.777Z,0
2016-12-24T04:17:45.361Z,0
2016-12-24T04:18:54.610Z,0
2016-12-24T04:20:03.192Z,0
2016-12-24T04:21:11.769Z,0
2016-12-24T04:22:21.003Z,0
2016-12-24T04:23:30.879Z,0
2016-12-24T04:24:40.140Z,0
2016-12-24T04:25:49.379Z,0
2016-12-24T04:26:57.964Z,0
2016-12-24T04:28:06.547Z,0
2016-12-24T04:29:15.437Z,0
2016-12-24T04:30:24.468Z,0
2016-12-24T04:31:33.039Z,0
2016-12-24T04:32:41.634Z,0
2016-12-24T04:33:50.220Z,0
2016-12-24T04:34:59.113Z,0
2016-12-24T04:36:08.147Z,0
2016-12-24T04:37:16.724Z,0
2016-12-24T04:38:25.302Z,0
2016-12-24T04:39:34.223Z,0
2016-12-24T04:40:43.464Z,0
2016-12-24T04:41:52.770Z,0
2016-12-24T04:43:01.353Z,0
2016-12-24T04:44:10.268Z,0
2016-12-24T04:45:19.184Z,0
2016-12-24T04:46:27.761Z,0
2016-12-24T04:47:37.115Z,0
2016-12-24T04:48:45.692Z,0
2016-12-24T04:49:54.595Z,0
2016-12-24T04:51:03.187Z,0
2016-12-24T04:52:12.108Z,0
2016-12-24T04:53:21.357Z,0
2016-12-24T04:54:30.283Z,0
2016-12-24T04:55:39.194Z,0
2016-12-24T04:56:47.776Z,0
2016-12-24T04:57:56.676Z,0
2016-12-24T04:59:05.912Z,0
2016-12-24T05:00:15.140Z,0
2016-12-24T05:01:23.725Z,0
2016-12-24T05:02:32.624Z,0
2016-12-24T05:03:41.527Z,0
2016-12-24T05:04:50.454Z,0
2016-12-24T05:05:59.682Z,0
2016-12-24T05:07:08.263Z,0
2016-12-24T05:08:17.499Z,0
2016-12-24T05:09:26.400Z,0
2016-12-24T05:10:35.378Z,0
2016-12-24T05:11:43.968Z,0
2016-12-24T05:12:52.869Z,0
2016-12-24T05:14:01.481Z,0
2016-12-24T05:15:10.390Z,0
2016-12-24T05:16:19.703Z,0
2016-12-24T05:17:28.298Z,0
2016-12-24T05:18:37.201Z,0
2016-12-24T05:19:46.106Z,0
2016-12-24T05:20:54.691Z,0
2016-12-24T05:22:03.335Z,0
2016-12-24T05:23:12.262Z,0
2016-12-24T05:24:20.836Z,0
2016-12-24T05:25:29.415Z,0
2016-12-24T05:26:37.992Z,0
2016-12-24T05:27:46.916Z,0
2016-12-24T05:28:55.512Z,0
2016-12-24T05:30:04.727Z,0
2016-12-24T05:31:13.629Z,0
2016-12-24T05:32:22.211Z,0
2016-12-24T05:33:30.947Z,0
2016-12-24T05:34:39.861Z,0
2016-12-24T05:35:48.452Z,0
2016-12-24T05:36:57.359Z,0
2016-12-24T05:38:06.908Z,0
2016-12-24T05:39:16.539Z,0
2016-12-24T05:40:25.442Z,0
2016-12-24T05:41:34.353Z,0
2016-12-24T05:42:43.275Z,0
2016-12-24T05:43:52.506Z,0
2016-12-24T05:45:01.570Z,0
2016-12-24T05:46:10.153Z,0
2016-12-24T05:47:19.059Z,0
2016-12-24T05:48:27.635Z,0
2016-12-24T05:49:36.219Z,0
2016-12-24T05:50:45.206Z,0
2016-12-24T05:51:53.796Z,0
2016-12-24T05:53:03.020Z,0
2016-12-24T05:54:11.596Z,0
2016-12-24T05:55:20.503Z,0
2016-12-24T05:56:30.114Z,0
2016-12-24T05:57:39.023Z,0
2016-12-24T05:58:48.583Z,0
2016-12-24T05:59:57.147Z,0
2016-12-24T06:01:05.735Z,0
2016-12-24T06:02:15.307Z,0
2016-12-24T06:03:23.896Z,0
2016-12-24T06:04:32.817Z,0
2016-12-24T06:05:41.418Z,0
2016-12-24T06:06:50.014Z,0
2016-12-24T06:07:58.998Z,0
2016-12-24T06:09:07.926Z,0
2016-12-24T06:10:16.817Z,0
2016-12-24T06:11:25.710Z,0
2016-12-24T06:12:34.616Z,0
2016-12-24T06:13:44.179Z,0
2016-12-24T06:14:52.746Z,0
2016-12-24T06:16:01.966Z,0
2016-12-24T06:17:11.514Z,0
2016-12-24T06:18:20.415Z,0
2016-12-24T06:19:29.978Z,0
2016-12-24T06:20:38.553Z,0
2016-12-24T06:21:47.775Z,0
2016-12-24T06:22:56.994Z,0
2016-12-24T06:24:06.215Z,0
2016-12-24T06:25:15.151Z,0
2016-12-24T06:26:23.738Z,0
2016-12-24T06:27:32.322Z,0
2016-12-24T06:28:41.234Z,0
2016-12-24T06:29:49.809Z,0
2016-12-24T06:30:58.529Z,0
2016-12-24T06:32:07.444Z,0
2016-12-24T06:33:16.019Z,0
2016-12-24T06:34:24.610Z,0
2016-12-24T06:35:33.543Z,0
2016-12-24T06:36:42.570Z,0
2016-12-24T06:37:51.468Z,0
2016-12-24T06:39:00.385Z,0
2016-12-24T06:40:09.295Z,0
2016-12-24T06:41:18.221Z,0
2016-12-24T06:42:27.573Z,0
2016-12-24T06:43:36.470Z,0
2016-12-24T06:44:45.047Z,0
2016-12-24T06:45:53.951Z,0
2016-12-24T06:47:02.859Z,0
2016-12-24T06:48:12.114Z,0
2016-12-24T06:49:20.719Z,0
2016-12-24T06:50:29.618Z,0
2016-12-24T06:51:38.503Z,0
2016-12-24T06:52:47.075Z,0
2016-12-24T06:53:58.437Z,0
2016-12-24T06:55:07.341Z,0
2016-12-24T06:56:15.928Z,0
2016-12-24T06:57:24.809Z,0
2016-12-24T06:58:33.714Z,0
2016-12-24T06:59:42.639Z,0
2016-12-24T07:00:51.231Z,0
2016-12-24T07:02:00.150Z,0
2016-12-24T07:03:09.051Z,0
2016-12-24T07:04:17.952Z,0
2016-12-24T07:05:27.578Z,4
2016-12-24T07:06:36.482Z,4
2016-12-24T07:07:45.382Z,4
2016-12-24T07:08:53.966Z,4
2016-12-24T07:10:02.558Z,4
2016-12-24T07:11:11.498Z,8
2016-12-24T07:12:20.402Z,4
2016-12-24T07:13:29.301Z,8
2016-12-24T07:14:37.887Z,8
2016-12-24T07:15:46.472Z,8
2016-12-24T07:16:56.053Z,12
2016-12-24T07:18:04.945Z,12
2016-12-24T07:19:13.530Z,16
2016-12-24T07:20:22.431Z,20
2016-12-24T07:21:31.024Z,24
2016-12-24T07:22:39.953Z,32
2016-12-24T07:23:48.865Z,36
2016-12-24T07:24:57.756Z,36
2016-12-24T07:26:06.661Z,44
2016-12-24T07:27:15.557Z,48
2016-12-24T07:28:24.498Z,60
2016-12-24T07:29:33.399Z,64
2016-12-24T07:30:41.974Z,76
2016-12-24T07:31:50.556Z,84
2016-12-24T07:32:59.458Z,96
2016-12-24T07:34:08.794Z,108
2016-12-24T07:35:17.692Z,120
2016-12-24T07:36:26.609Z,132
2016-12-24T07:37:35.545Z,148
2016-12-24T07:38:44.444Z,160
2016-12-24T07:39:53.496Z,176
2016-12-24T07:41:02.385Z,192
2016-12-24T07:42:10.969Z,208
2016-12-24T07:43:20.199Z,224
2016-12-24T07:44:29.109Z,244
2016-12-24T07:45:38.051Z,260
2016-12-24T07:46:46.953Z,284
2016-12-24T07:47:55.535Z,300
2016-12-24T07:49:04.433Z,320
2016-12-24T07:50:13.014Z,340
2016-12-24T07:51:22.056Z,360
2016-12-24T07:52:30.637Z,380
2016-12-24T07:53:39.534Z,396
2016-12-24T07:54:48.104Z,412
2016-12-24T07:55:57.000Z,428
2016-12-24T07:57:05.972Z,444
2016-12-24T07:58:15.212Z,464
2016-12-24T07:59:23.792Z,480
2016-12-24T08:00:32.697Z,504
2016-12-24T08:01:41.286Z,528
2016-12-24T08:02:51.044Z,548
2016-12-24T08:03:59.632Z,572
2016-12-24T08:05:08.535Z,604
2016-12-24T08:06:17.449Z,636
2016-12-24T08:07:26.038Z,676
2016-12-24T08:08:35.626Z,716
2016-12-24T08:09:44.213Z,756
2016-12-24T08:10:52.803Z,804
2016-12-24T08:12:01.711Z,848
2016-12-24T08:13:10.604Z,892
2016-12-24T08:14:20.222Z,936
2016-12-24T08:15:28.815Z,968
2016-12-24T08:16:37.725Z,1020
2016-12-24T08:17:46.938Z,1076
2016-12-24T08:18:55.839Z,1112
2016-12-24T08:20:05.094Z,1124
2016-12-24T08:21:14.004Z,1132
2016-12-24T08:22:23.230Z,1144
2016-12-24T08:23:31.810Z,1160
2016-12-24T08:24:40.712Z,1172
2016-12-24T08:25:49.659Z,1188
2016-12-24T08:26:58.231Z,1200
2016-12-24T08:28:07.143Z,1212
2016-12-24T08:29:15.724Z,1208
2016-12-24T08:30:24.621Z,1204
2016-12-24T08:31:34.011Z,1208
2016-12-24T08:32:42.600Z,1228
2016-12-24T08:33:51.821Z,1256
2016-12-24T08:35:00.420Z,1300
2016-12-24T08:36:09.013Z,1360
2016-12-24T08:37:18.594Z,1436
2016-12-24T08:38:27.174Z,1536
2016-12-24T08:39:36.716Z,1660
2016-12-24T08:40:45.625Z,1828
2016-12-24T08:41:54.533Z,2036
2016-12-24T08:43:03.481Z,2300
2016-12-24T08:44:12.715Z,2568
2016-12-24T08:45:21.615Z,2820
2016-12-24T08:46:30.200Z,3104
2016-12-24T08:47:39.440Z,3340
2016-12-24T08:48:48.463Z,3428
2016-12-24T08:49:57.367Z,3504
2016-12-24T08:51:05.944Z,3520
2016-12-24T08:52:15.487Z,3352
2016-12-24T08:53:24.380Z,3444
2016-12-24T08:54:33.641Z,3584
2016-12-24T08:55:42.529Z,3644
2016-12-24T08:56:51.434Z,3632
2016-12-24T08:58:00.053Z,3572
2016-12-24T08:59:09.288Z,3564
2016-12-24T09:00:18.318Z,3804
2016-12-24T09:01:27.534Z,4180
2016-12-24T09:02:36.117Z,4448
2016-12-24T09:03:45.027Z,4868
2016-12-24T09:04:53.948Z,5424
2016-12-24T09:06:03.309Z,5716
2016-12-24T09:07:12.212Z,5480
2016-12-24T09:08:21.447Z,5192
2016-12-24T09:09:30.342Z,4900
2016-12-24T09:10:39.254Z,4860
2016-12-24T09:11:48.892Z,5044
2016-12-24T09:12:57.478Z,5516
2016-12-24T09:14:06.369Z,5780
2016-12-24T09:15:15.580Z,5644
2016-12-24T09:16:24.472Z,5416
2016-12-24T09:17:33.723Z,5004
2016-12-24T09:18:42.303Z,4924
2016-12-24T09:19:50.884Z,5220
2016-12-24T09:20:59.835Z,5632
2016-12-24T09:22:09.070Z,5816
2016-12-24T09:23:18.601Z,5396
2016-12-24T09:24:27.178Z,5204
2016-12-24T09:25:35.762Z,4904
2016-12-24T09:26:44.342Z,4816
2016-12-24T09:27:52.919Z,5056
2016-12-24T09:29:01.847Z,4984
2016-12-24T09:30:11.070Z,5116
2016-12-24T09:31:19.974Z,4872
2016-12-24T09:32:28.564Z,5236
2016-12-24T09:33:37.172Z,5456
2016-12-24T09:34:46.689Z,5272
2016-12-24T09:35:55.922Z,5356
2016-12-24T09:37:04.511Z,5072
2016-12-24T09:38:13.413Z,4936
2016-12-24T09:39:22.972Z,5116
2016-12-24T09:40:32.282Z,5180
2016-12-24T09:41:41.192Z,5048
2016-12-24T09:42:50.094Z,5072
2016-12-24T09:43:58.986Z,5092
2016-12-24T09:45:07.883Z,4876
2016-12-24T09:46:17.189Z,4740
2016-12-24T09:47:25.789Z,4940
2016-12-24T09:48:34.374Z,5128
2016-12-24T09:49:43.303Z,5668
2016-12-24T09:50:52.218Z,5384
2016-12-24T09:52:00.899Z,5172
2016-12-24T09:53:09.475Z,5196
2016-12-24T09:54:18.711Z,5016
2016-12-24T09:55:27.284Z,4984
2016-12-24T09:56:35.872Z,5012
2016-12-24T09:57:45.148Z,5308
2016-12-24T09:58:53.729Z,5080
2016-12-24T10:00:03.271Z,5128
2016-12-24T10:01:11.855Z,5136
2016-12-24T10:02:20.438Z,4968
2016-12-24T10:03:29.383Z,4836
2016-12-24T10:04:38.291Z,4788
2016-12-24T10:05:47.503Z,4772
2016-12-24T10:06:56.404Z,4700
2016-12-24T10:08:05.005Z,4488
2016-12-24T10:09:14.268Z,4336
2016-12-24T10:10:22.860Z,4220
2016-12-24T10:11:32.084Z,4208
2016-12-24T10:12:40.989Z,4116
2016-12-24T10:13:50.210Z,4148
2016-12-24T10:14:58.962Z,4176
2016-12-24T10:16:07.870Z,4168
2016-12-24T10:17:17.113Z,3900
2016-12-24T10:18:26.351Z,3496
2016-12-24T10:19:35.585Z,3176
2016-12-24T10:20:44.891Z,3032
2016-12-24T10:21:53.480Z,2960
2016-12-24T10:23:02.391Z,3016
2016-12-24T10:24:11.624Z,3320
2016-12-24T10:25:20.534Z,3848
2016-12-24T10:26:29.278Z,4408
2016-12-24T10:27:38.169Z,4984
2016-12-24T10:28:46.746Z,5384
2016-12-24T10:29:55.327Z,5640
2016-12-24T10:31:04.557Z,5740
2016-12-24T10:32:13.600Z,5712
2016-12-24T10:33:22.193Z,5352
2016-12-24T10:34:30.774Z,5108
2016-12-24T10:35:39.366Z,5432
2016-12-24T10:36:48.261Z,6140
2016-12-24T10:37:57.532Z,6448
2016-12-24T10:39:06.125Z,6516
2016-12-24T10:40:15.038Z,6736
2016-12-24T10:41:23.955Z,7052
2016-12-24T10:42:32.547Z,6908
2016-12-24T10:43:41.906Z,6640
2016-12-24T10:44:50.498Z,6636
2016-12-24T10:45:59.074Z,6984
2016-12-24T10:47:07.669Z,7504
2016-12-24T10:48:16.884Z,7920
2016-12-24T10:49:26.187Z,8224
2016-12-24T10:50:35.088Z,8312
2016-12-24T10:51:43.658Z,7972
2016-12-24T10:52:52.238Z,7284
2016-12-24T10:54:01.481Z,6592
2016-12-24T10:55:10.747Z,6084
2016-12-24T10:56:19.643Z,5740
2016-12-24T10:57:28.210Z,5656
2016-12-24T10:58:37.117Z,5616
2016-12-24T10:59:45.693Z,5592
2016-12-24T11:00:54.953Z,5688
2016-12-24T11:02:03.848Z,5952
2016-12-24T11:03:12.763Z,6176
2016-12-24T11:04:21.668Z,6524
2016-12-24T11:05:30.254Z,6936
2016-12-24T11:06:39.471Z,7180
2016-12-24T11:07:48.055Z,7380
2016-12-24T11:08:56.972Z,7628
2016-12-24T11:10:05.563Z,7456
2016-12-24T11:11:14.471Z,7144
2016-12-24T11:12:23.439Z,6832
2016-12-24T11:13:32.975Z,6520
2016-12-24T11:14:41.904Z,6524
2016-12-24T11:15:50.492Z,6916
2016-12-24T11:16:59.400Z,7344
2016-12-24T11:18:08.036Z,7812
2016-12-24T11:19:17.270Z,8520
2016-12-24T11:20:25.858Z,8708
2016-12-24T11:21:34.771Z,8608
2016-12-24T11:22:43.689Z,8528
2016-12-24T11:23:52.729Z,8464
2016-12-24T11:25:01.626Z,8668
2016-12-24T11:26:10.208Z,8712
2016-12-24T11:27:18.803Z,8408
2016-12-24T11:28:27.714Z,8004
2016-12-24T11:29:37.024Z,7512
2016-12-24T11:30:45.926Z,7032
2016-12-24T11:31:54.837Z,6640
2016-12-24T11:33:03.430Z,6552
2016-12-24T11:34:12.326Z,6568
2016-12-24T11:35:22.002Z,6552
2016-12-24T11:36:30.594Z,6576
2016-12-24T11:37:39.528Z,6048
2016-12-24T11:38:48.101Z,5432
2016-12-24T11:39:56.995Z,5692
2016-12-24T11:41:05.629Z,5980
2016-12-24T11:42:14.531Z,5992
2016-12-24T11:43:23.440Z,5744
2016-12-24T11:44:32.351Z,5364
2016-12-24T11:45:40.942Z,4652
2016-12-24T11:46:50.198Z,4804
2016-12-24T11:47:58.794Z,4908
2016-12-24T11:49:07.381Z,4956
2016-12-24T11:50:16.297Z,4248
2016-12-24T11:51:24.875Z,3564
2016-12-24T11:52:33.505Z,3628
2016-12-24T11:53:42.413Z,3528
2016-12-24T11:54:51.002Z,4000
2016-12-24T11:55:59.579Z,3560
2016-12-24T11:57:08.484Z,3980
2016-12-24T11:58:17.473Z,4280
2016-12-24T11:59:26.053Z,4360
2016-12-24T12:00:34.954Z,4728
2016-12-24T12:01:44.165Z,4108
2016-12-24T12:02:53.066Z,4048
2016-12-24T12:04:01.994Z,3824
2016-12-24T12:05:10.908Z,3644
2016-12-24T12:06:19.823Z,3368
2016-12-24T12:07:28.414Z,3184
2016-12-24T12:08:37.005Z,3376
2016-12-24T12:09:45.943Z,3504
2016-12-24T12:10:54.535Z,3752
2016-12-24T12:12:03.119Z,3944
2016-12-24T12:13:11.706Z,4484
2016-12-24T12:14:20.619Z,5224
2016-12-24T12:15:29.865Z,5736
2016-12-24T12:16:38.781Z,5580
2016-12-24T12:17:47.730Z,6468
2016-12-24T12:18:56.310Z,6684
2016-12-24T12:20:04.894Z,5620
2016-12-24T12:21:13.836Z,5508
2016-12-24T12:22:22.742Z,4740
2016-12-24T12:23:31.327Z,4060
2016-12-24T12:24:40.235Z,3204
2016-12-24T12:25:48.817Z,3472
2016-12-24T12:26:57.865Z,3628
2016-12-24T12:28:06.447Z,3864
2016-12-24T12:29:15.039Z,3744
2016-12-24T12:30:23.957Z,4420
2016-12-24T12:31:32.546Z,4608
2016-12-24T12:32:41.480Z,4920
2016-12-24T12:33:50.380Z,5264
2016-12-24T12:34:58.971Z,4672
2016-12-24T12:36:07.559Z,4392
2016-12-24T12:37:16.151Z,4144
2016-12-24T12:38:25.482Z,3856
2016-12-24T12:39:34.394Z,3552
2016-12-24T12:40:43.309Z,3736
2016-12-24T12:41:52.233Z,3904
2016-12-24T12:43:01.131Z,3904
2016-12-24T12:44:10.418Z,3408
2016-12-24T12:45:19.330Z,3316
2016-12-24T12:46:27.909Z,3360
2016-12-24T12:47:37.128Z,3352
2016-12-24T12:48:46.043Z,3112
2016-12-24T12:49:55.399Z,2644
2016-12-24T12:51:03.993Z,3124
2016-12-24T12:52:12.904Z,4112
2016-12-24T12:53:21.478Z,4600
2016-12-24T12:54:30.073Z,4004
2016-12-24T12:55:39.050Z,4144
2016-12-24T12:56:47.640Z,4812
2016-12-24T12:57:57.174Z,4964
2016-12-24T12:59:05.753Z,5584
2016-12-24T13:00:14.652Z,4580
2016-12-24T13:01:24.311Z,4680
2016-12-24T13:02:33.225Z,4224
2016-12-24T13:03:42.131Z,4452
2016-12-24T13:04:51.031Z,5552
2016-12-24T13:05:59.609Z,6044
2016-12-24T13:07:09.271Z,6988
2016-12-24T13:08:18.187Z,6320
2016-12-24T13:09:26.783Z,5776
2016-12-24T13:10:35.689Z,5864
2016-12-24T13:11:44.610Z,5588
2016-12-24T13:12:54.587Z,5824
2016-12-24T13:14:03.498Z,5724
2016-12-24T13:15:12.417Z,5852
2016-12-24T13:16:21.328Z,5932
2016-12-24T13:17:30.233Z,5776
2016-12-24T13:18:39.517Z,5540
2016-12-24T13:19:48.432Z,5260
2016-12-24T13:20:57.671Z,5044
2016-12-24T13:22:06.268Z,4656
2016-12-24T13:23:15.491Z,4488
2016-12-24T13:24:25.149Z,4288
2016-12-24T13:25:33.753Z,4020
2016-12-24T13:26:42.650Z,3832
2016-12-24T13:27:51.545Z,3776
2016-12-24T13:29:00.775Z,4060
2016-12-24T13:30:10.041Z,4728
2016-12-24T13:31:18.648Z,4620
2016-12-24T13:32:27.253Z,4948
2016-12-24T13:33:35.840Z,5036
2016-12-24T13:34:44.452Z,4992
2016-12-24T13:35:53.133Z,5252
2016-12-24T13:37:02.038Z,5548
2016-12-24T13:38:10.936Z,5208
2016-12-24T13:39:19.524Z,4808
2016-12-24T13:40:28.110Z,4860
2016-12-24T13:41:37.475Z,4528
2016-12-24T13:42:46.373Z,4724
2016-12-24T13:43:55.285Z,4256
2016-12-24T13:45:04.820Z,3996
2016-12-24T13:46:13.730Z,3820
2016-12-24T13:47:22.979Z,3568
2016-12-24T13:48:31.581Z,3392
2016-12-24T13:49:40.172Z,3352
2016-12-24T13:50:48.760Z,3388
2016-12-24T13:51:57.352Z,3432
2016-12-24T13:53:06.079Z,3464
2016-12-24T13:54:14.673Z,3436
2016-12-24T13:55:23.582Z,3284
2016-12-24T13:56:32.476Z,3144
2016-12-24T13:57:41.055Z,3064
2016-12-24T13:58:50.387Z,2972
2016-12-24T13:59:59.299Z,2912
2016-12-24T14:01:08.207Z,2748
2016-12-24T14:02:17.116Z,2568
2016-12-24T14:03:26.012Z,2352
2016-12-24T14:04:35.692Z,2212
2016-12-24T14:05:44.316Z,2040
2016-12-24T14:06:52.914Z,1904
2016-12-24T14:08:01.510Z,1816
2016-12-24T14:09:10.107Z,1756
2016-12-24T14:10:19.483Z,1696
2016-12-24T14:11:28.075Z,1616
2016-12-24T14:12:37.294Z,1528
2016-12-24T14:13:46.199Z,1444
2016-12-24T14:14:55.099Z,1392
2016-12-24T14:16:04.036Z,1372
2016-12-24T14:17:12.953Z,1376
2016-12-24T14:18:21.546Z,1376
2016-12-24T14:19:31.105Z,1364
2016-12-24T14:20:40.001Z,1392
2016-12-24T14:21:49.616Z,1436
2016-12-24T14:22:58.517Z,1476
2016-12-24T14:24:08.116Z,1464
2016-12-24T14:25:17.647Z,1404
2016-12-24T14:26:26.222Z,1336
2016-12-24T14:27:35.158Z,1268
2016-12-24T14:28:43.732Z,1208
2016-12-24T14:29:52.623Z,1160
2016-12-24T14:31:01.200Z,1104
2016-12-24T14:32:09.792Z,1040
2016-12-24T14:33:19.493Z,980
2016-12-24T14:34:28.400Z,948
2016-12-24T14:35:37.309Z,924
2016-12-24T14:36:45.883Z,884
2016-12-24T14:37:54.467Z,848
2016-12-24T14:39:03.504Z,824
2016-12-24T14:40:12.081Z,808
2016-12-24T14:41:21.607Z,764
2016-12-24T14:42:30.518Z,768
2016-12-24T14:43:39.410Z,736
2016-12-24T14:44:49.068Z,676
2016-12-24T14:45:57.662Z,616
2016-12-24T14:47:06.897Z,552
2016-12-24T14:48:16.121Z,468
2016-12-24T14:49:24.706Z,472
2016-12-24T14:50:33.643Z,460
2016-12-24T14:51:42.554Z,408
2016-12-24T14:52:51.482Z,376
2016-12-24T14:54:01.037Z,304
2016-12-24T14:55:10.252Z,268
2016-12-24T14:56:19.324Z,284
2016-12-24T14:57:27.912Z,288
2016-12-24T14:58:36.527Z,228
2016-12-24T14:59:45.129Z,212
2016-12-24T15:00:54.362Z,216
2016-12-24T15:02:03.626Z,212
2016-12-24T15:03:12.856Z,188
2016-12-24T15:04:21.450Z,176
2016-12-24T15:05:30.350Z,168
2016-12-24T15:06:39.255Z,164
2016-12-24T15:07:47.999Z,156
2016-12-24T15:08:56.574Z,152
2016-12-24T15:10:05.479Z,152
2016-12-24T15:11:14.058Z,136
2016-12-24T15:12:22.967Z,136
2016-12-24T15:13:31.648Z,132
2016-12-24T15:14:40.549Z,128
2016-12-24T15:15:49.128Z,120
2016-12-24T15:16:57.711Z,120
2016-12-24T15:18:06.300Z,112
2016-12-24T15:19:15.222Z,96
2016-12-24T15:20:23.806Z,80
2016-12-24T15:21:32.388Z,68
2016-12-24T15:22:41.298Z,64
2016-12-24T15:23:49.881Z,64
2016-12-24T15:24:59.250Z,48
2016-12-24T15:26:08.175Z,40
2016-12-24T15:27:16.757Z,28
2016-12-24T15:28:25.981Z,28
2016-12-24T15:29:34.569Z,32
2016-12-24T15:30:43.858Z,28
2016-12-24T15:31:52.444Z,24
2016-12-24T15:33:01.354Z,20
2016-12-24T15:34:10.257Z,20
2016-12-24T15:35:19.167Z,12
2016-12-24T15:36:28.158Z,12
2016-12-24T15:37:36.738Z,8
2016-12-24T15:38:45.984Z,8
2016-12-24T15:39:54.575Z,8
2016-12-24T15:41:03.156Z,4
2016-12-24T15:42:11.893Z,4
2016-12-24T15:43:20.809Z,4
2016-12-24T15:44:29.398Z,4
2016-12-24T15:45:37.981Z,4
2016-12-24T15:46:46.894Z,4
2016-12-24T15:47:56.487Z,4
2016-12-24T15:49:05.074Z,0
2016-12-24T15:50:14.301Z,0
2016-12-24T15:51:23.186Z,0
2016-12-24T15:52:31.783Z,0
2016-12-24T15:53:41.037Z,0
2016-12-24T15:54:50.267Z,0
2016-12-24T15:55:58.833Z,0
2016-12-24T15:57:07.420Z,0
2016-12-24T15:58:16.647Z,0
2016-12-24T15:59:25.975Z,0
2016-12-24T16:00:34.559Z,0
2016-12-24T16:01:43.456Z,0
2016-12-24T16:02:52.372Z,0
2016-12-24T16:04:00.959Z,0
2016-12-24T16:05:09.966Z,0
2016-12-24T16:06:18.557Z,0
2016-12-24T16:07:27.493Z,0
2016-12-24T16:08:36.391Z,0
2016-12-24T16:09:44.976Z,0